Big Bear Station Historical Data
Daily Summary for October 8, 2017 Units:  English    Metric   Both
« Previous Day
Next Day »
Daily Weekly Monthly Yearly Custom
  High: Low: Average:
Temperature: 70.0 °F 40.3 °F 53.8 °F
Dew Point: 32.2 °F 13.6 °F 24.1 °F
Humidity: 53 % 20 % 33 %
Wind Speed: 7.8 mph 0.0 mph 2.1 mph
Wind Gust: -999.0 mph - -
Wind:- - WSW
Pressure: 30.09 in 29.99 in -
Precipitation: 0.00 in    
Historical Graphs
 
 
Tabular Data for October 8, 2017
Time Temperature Dew Point Pressure Wind Wind Speed Wind Gust Humidity Rainfall Rate (Hourly)
00:05 48.9 °F 15.5 °F 30.09 in South 1.7 mph -999.0 mph 26 % 0 in
00:21 48.0 °F 16.4 °F 30.08 in SSW 3.2 mph -999.0 mph 28 % 0 in
00:36 47.3 °F 15.8 °F 30.08 in Calm   -999.0 mph 28 % 0 in
01:06 48.4 °F 16.8 °F 30.07 in Calm   -999.0 mph 28 % 0 in
01:21 47.3 °F 14.1 °F 30.07 in South 1.7 mph -999.0 mph 26 % 0 in
01:37 46.6 °F 24.1 °F 30.07 in Calm   -999.0 mph 41 % 0 in
01:52 47.5 °F 15.1 °F 30.07 in SSE 1.7 mph -999.0 mph 27 % 0 in
02:07 47.7 °F 13.6 °F 30.07 in South 3.2 mph -999.0 mph 25 % 0 in
02:22 47.3 °F 14.1 °F 30.06 in South 3.2 mph -999.0 mph 26 % 0 in
02:37 46.9 °F 19.3 °F 30.05 in Calm   -999.0 mph 33 % 0 in
02:53 46.6 °F 19.7 °F 30.06 in SSW 2.7 mph -999.0 mph 34 % 0 in
03:08 46.9 °F 14.6 °F 30.05 in South 2.7 mph -999.0 mph 27 % 0 in
03:23 45.7 °F 14.4 °F 30.05 in Calm   -999.0 mph 28 % 0 in
03:38 45.0 °F 14.6 °F 30.05 in SSE 1.7 mph -999.0 mph 29 % 0 in
03:54 43.9 °F 15.2 °F 30.05 in Calm   -999.0 mph 31 % 0 in
04:09 43.5 °F 16.3 °F 30.04 in South 1.1 mph -999.0 mph 33 % 0 in
04:24 43.2 °F 15.3 °F 30.04 in Calm   -999.0 mph 32 % 0 in
04:39 42.3 °F 19.1 °F 30.04 in Calm   -999.0 mph 39 % 0 in
04:54 42.1 °F 26.2 °F 30.04 in Calm   -999.0 mph 53 % 0 in
05:09 42.1 °F 20.1 °F 30.03 in SSE 3.2 mph -999.0 mph 41 % 0 in
05:40 42.1 °F 23.3 °F 30.04 in SSE 1.1 mph -999.0 mph 47 % 0 in
05:55 41.5 °F 20.7 °F 30.04 in Calm   -999.0 mph 43 % 0 in
06:10 42.3 °F 20.3 °F 30.04 in Calm   -999.0 mph 41 % 0 in
06:26 41.5 °F 20.7 °F 30.04 in South 2.2 mph -999.0 mph 43 % 0 in
06:41 41.4 °F 17.7 °F 30.04 in South 2.2 mph -999.0 mph 38 % 0 in
06:56 41.2 °F 17.5 °F 30.03 in Calm   -999.0 mph 38 % 0 in
07:11 40.6 °F 20.9 °F 30.04 in Calm   -999.0 mph 45 % 0 in
07:26 40.3 °F 21.1 °F 30.03 in Calm   -999.0 mph 46 % 0 in
07:42 41.9 °F 24.6 °F 30.03 in South 2.7 mph -999.0 mph 50 % 0 in
07:57 43.5 °F 20.8 °F 30.04 in South 2.7 mph -999.0 mph 40 % 0 in
08:13 49.5 °F 21.6 °F 30.04 in South 1.1 mph -999.0 mph 33 % 0 in
08:28 50.7 °F 21.1 °F 30.03 in Calm   -999.0 mph 31 % 0 in
08:43 51.8 °F 22.1 °F 30.03 in Calm   -999.0 mph 31 % 0 in
08:58 54.7 °F 22.2 °F 30.04 in Calm   -999.0 mph 28 % 0 in
09:14 56.3 °F 22.7 °F 30.04 in NNW 3.7 mph -999.0 mph 27 % 0 in
09:44 59.2 °F 23.4 °F 30.04 in NW 1.7 mph -999.0 mph 25 % 0 in
10:00 60.3 °F 23.3 °F 30.04 in WNW 3.7 mph -999.0 mph 24 % 0 in
10:15 61.0 °F 23.9 °F 30.04 in WNW 1.7 mph -999.0 mph 24 % 0 in
10:30 63.5 °F 26.0 °F 30.04 in North 2.7 mph -999.0 mph 24 % 0 in
10:46 64.6 °F 27.0 °F 30.03 in NW 3.2 mph -999.0 mph 24 % 0 in
11:01 65.1 °F 27.4 °F 30.03 in NW 4.7 mph -999.0 mph 24 % 0 in
11:16 66.2 °F 27.3 °F 30.04 in NNW 3.2 mph -999.0 mph 23 % 0 in
11:32 67.1 °F 28.0 °F 30.03 in NW 4.2 mph -999.0 mph 23 % 0 in
11:47 67.8 °F 28.6 °F 30.03 in NW 4.2 mph -999.0 mph 23 % 0 in
12:02 68.0 °F 27.7 °F 30.03 in NNW 3.7 mph -999.0 mph 22 % 0 in
12:17 69.1 °F 27.5 °F 30.03 in NW 7.8 mph -999.0 mph 21 % 0 in
12:32 69.3 °F 26.5 °F 30.02 in WNW 3.2 mph -999.0 mph 20 % 0 in
12:48 69.3 °F 26.5 °F 30.02 in NNW 6.3 mph -999.0 mph 20 % 0 in
13:03 69.3 °F 26.5 °F 30.02 in ESE 2.2 mph -999.0 mph 20 % 0 in
13:18 70.0 °F 28.3 °F 30.02 in NW 3.2 mph -999.0 mph 21 % 0 in
13:33 69.6 °F 27.9 °F 30.01 in NNW 3.7 mph -999.0 mph 21 % 0 in
13:48 69.1 °F 31.8 °F 30.01 in NW 4.7 mph -999.0 mph 25 % 0 in
14:04 68.4 °F 28.1 °F 30.01 in WNW 4.7 mph -999.0 mph 22 % 0 in
14:19 68.0 °F 31.8 °F 30.00 in NW 4.2 mph -999.0 mph 26 % 0 in
14:34 68.2 °F 30.0 °F 30.00 in NW 4.2 mph -999.0 mph 24 % 0 in
14:50 68.5 °F 29.2 °F 30.00 in NW 4.2 mph -999.0 mph 23 % 0 in
15:05 67.3 °F 32.2 °F 30.00 in NW 3.7 mph -999.0 mph 27 % 0 in
15:20 66.9 °F 28.9 °F 30.00 in NW 3.7 mph -999.0 mph 24 % 0 in
15:36 65.8 °F 29.0 °F 30.00 in NW 3.7 mph -999.0 mph 25 % 0 in
15:51 64.6 °F 30.7 °F 29.99 in WNW 2.7 mph -999.0 mph 28 % 0 in
16:06 64.6 °F 28.9 °F 29.99 in WNW 3.7 mph -999.0 mph 26 % 0 in
16:22 63.7 °F 28.2 °F 29.99 in NW 2.2 mph -999.0 mph 26 % 0 in
16:37 62.8 °F 28.3 °F 29.99 in WNW 3.2 mph -999.0 mph 27 % 0 in
16:52 62.1 °F 27.7 °F 29.99 in NW 3.7 mph -999.0 mph 27 % 0 in
17:07 61.2 °F 28.7 °F 30.00 in North 2.7 mph -999.0 mph 29 % 0 in
17:23 59.9 °F 29.2 °F 29.99 in NNW 2.7 mph -999.0 mph 31 % 0 in
17:38 58.5 °F 28.7 °F 29.99 in North 1.7 mph -999.0 mph 32 % 0 in
17:54 57.2 °F 29.1 °F 29.99 in NNW 1.7 mph -999.0 mph 34 % 0 in
18:09 56.3 °F 31.6 °F 29.99 in Calm   -999.0 mph 39 % 0 in
18:24 54.9 °F 31.0 °F 29.99 in Calm   -999.0 mph 40 % 0 in
18:39 53.8 °F 31.8 °F 29.99 in SSW 1.1 mph -999.0 mph 43 % 0 in
19:10 52.2 °F 32.0 °F 29.99 in South 2.7 mph -999.0 mph 46 % 0 in
19:25 51.1 °F 29.9 °F 29.99 in Calm   -999.0 mph 44 % 0 in
19:40 49.8 °F 27.6 °F 29.99 in Calm   -999.0 mph 42 % 0 in
19:56 48.9 °F 30.1 °F 29.99 in Calm   -999.0 mph 48 % 0 in
20:42 46.8 °F 26.0 °F 29.99 in SSE 2.2 mph -999.0 mph 44 % 0 in
20:57 46.0 °F 27.9 °F 30.00 in Calm   -999.0 mph 49 % 0 in
21:12 46.0 °F 28.4 °F 30.01 in South 1.7 mph -999.0 mph 50 % 0 in
21:27 45.9 °F 23.5 °F 30.01 in SSE 1.7 mph -999.0 mph 41 % 0 in
21:43 45.1 °F 22.8 °F 30.01 in South 1.1 mph -999.0 mph 41 % 0 in
21:58 45.0 °F 22.1 °F 30.01 in ESE 1.1 mph -999.0 mph 40 % 0 in
22:13 46.0 °F 24.7 °F 30.01 in SE 1.7 mph -999.0 mph 43 % 0 in
22:28 45.9 °F 21.7 °F 30.02 in SE 2.2 mph -999.0 mph 38 % 0 in
22:44 46.6 °F 22.9 °F 30.03 in WSW 2.7 mph -999.0 mph 39 % 0 in
22:59 47.1 °F 23.4 °F 30.04 in SSE 2.2 mph -999.0 mph 39 % 0 in
23:15 48.2 °F 25.0 °F 30.04 in SSE 2.2 mph -999.0 mph 40 % 0 in
23:30 50.9 °F 26.8 °F 30.04 in NNW 2.7 mph -999.0 mph 39 % 0 in
23:45 50.9 °F 26.2 °F 30.04 in SE 1.1 mph -999.0 mph 38 % 0 in
Big Bear CA Weather
Compliments of Weather Underground - 1.5 mb